sensor_id;sensor_type;location;lat;lon;timestamp;P1;durP1;ratioP1;P2;durP2;ratioP2
21675;SDS011;10999;51.332;9.458;2023-02-26T00:00:31;3.08;;;0.55;;
21675;SDS011;10999;51.332;9.458;2023-02-26T00:02:58;2.90;;;0.75;;
21675;SDS011;10999;51.332;9.458;2023-02-26T00:05:25;2.33;;;0.85;;
21675;SDS011;10999;51.332;9.458;2023-02-26T00:10:18;1.27;;;0.52;;
21675;SDS011;10999;51.332;9.458;2023-02-26T00:12:45;4.38;;;0.73;;
21675;SDS011;10999;51.332;9.458;2023-02-26T00:15:13;3.08;;;0.80;;
21675;SDS011;10999;51.332;9.458;2023-02-26T00:17:44;4.20;;;1.20;;
21675;SDS011;10999;51.332;9.458;2023-02-26T00:20:35;3.72;;;1.40;;
21675;SDS011;10999;51.332;9.458;2023-02-26T00:23:02;5.55;;;1.95;;
21675;SDS011;10999;51.332;9.458;2023-02-26T00:25:29;4.53;;;1.30;;
21675;SDS011;10999;51.332;9.458;2023-02-26T00:27:56;2.70;;;1.17;;
21675;SDS011;10999;51.332;9.458;2023-02-26T00:30:23;5.18;;;1.25;;
21675;SDS011;10999;51.332;9.458;2023-02-26T00:32:50;6.32;;;1.92;;
21675;SDS011;10999;51.332;9.458;2023-02-26T00:35:16;6.05;;;1.50;;
21675;SDS011;10999;51.332;9.458;2023-02-26T00:37:47;6.70;;;1.60;;
21675;SDS011;10999;51.332;9.458;2023-02-26T00:48:46;4.78;;;1.60;;
21675;SDS011;10999;51.332;9.458;2023-02-26T00:53:51;7.10;;;1.30;;
21675;SDS011;10999;51.332;9.458;2023-02-26T00:56:28;3.75;;;1.20;;
21675;SDS011;10999;51.332;9.458;2023-02-26T01:01:21;6.00;;;1.48;;
21675;SDS011;10999;51.332;9.458;2023-02-26T01:03:48;6.15;;;1.50;;
21675;SDS011;10999;51.332;9.458;2023-02-26T01:06:16;5.35;;;1.52;;
21675;SDS011;10999;51.332;9.458;2023-02-26T01:09:21;5.57;;;1.17;;
21675;SDS011;10999;51.332;9.458;2023-02-26T01:11:38;4.32;;;1.52;;
21675;SDS011;10999;51.332;9.458;2023-02-26T01:14:05;4.63;;;1.40;;
21675;SDS011;10999;51.332;9.458;2023-02-26T01:16:33;5.18;;;1.27;;
21675;SDS011;10999;51.332;9.458;2023-02-26T01:19:10;2.42;;;0.70;;
21675;SDS011;10999;51.332;9.458;2023-02-26T01:21:45;3.17;;;1.25;;
21675;SDS011;10999;51.332;9.458;2023-02-26T01:24:18;3.85;;;1.33;;
21675;SDS011;10999;51.332;9.458;2023-02-26T01:26:48;5.03;;;1.38;;
21675;SDS011;10999;51.332;9.458;2023-02-26T01:29:15;4.80;;;1.30;;
21675;SDS011;10999;51.332;9.458;2023-02-26T01:34:47;5.93;;;1.30;;
21675;SDS011;10999;51.332;9.458;2023-02-26T01:37:28;3.33;;;0.93;;
21675;SDS011;10999;51.332;9.458;2023-02-26T01:40:28;3.97;;;0.85;;
21675;SDS011;10999;51.332;9.458;2023-02-26T01:43:54;1.33;;;0.60;;
21675;SDS011;10999;51.332;9.458;2023-02-26T01:46:51;1.88;;;0.68;;
21675;SDS011;10999;51.332;9.458;2023-02-26T01:49:25;4.53;;;0.93;;
21675;SDS011;10999;51.332;9.458;2023-02-26T01:51:54;1.35;;;0.70;;
21675;SDS011;10999;51.332;9.458;2023-02-26T01:59:34;3.17;;;0.68;;
21675;SDS011;10999;51.332;9.458;2023-02-26T02:02:07;2.83;;;0.65;;
21675;SDS011;10999;51.332;9.458;2023-02-26T02:04:36;5.82;;;1.10;;
21675;SDS011;10999;51.332;9.458;2023-02-26T02:07:05;5.03;;;0.93;;
21675;SDS011;10999;51.332;9.458;2023-02-26T02:09:32;3.30;;;0.80;;
21675;SDS011;10999;51.332;9.458;2023-02-26T02:14:51;1.45;;;0.50;;
21675;SDS011;10999;51.332;9.458;2023-02-26T02:17:40;3.53;;;0.57;;
21675;SDS011;10999;51.332;9.458;2023-02-26T02:23:39;3.88;;;1.08;;
21675;SDS011;10999;51.332;9.458;2023-02-26T02:26:28;2.97;;;0.45;;
21675;SDS011;10999;51.332;9.458;2023-02-26T02:32:17;4.13;;;0.85;;
21675;SDS011;10999;51.332;9.458;2023-02-26T02:35:02;1.70;;;0.57;;
21675;SDS011;10999;51.332;9.458;2023-02-26T02:38:07;2.50;;;0.55;;
21675;SDS011;10999;51.332;9.458;2023-02-26T02:40:39;5.25;;;0.82;;
21675;SDS011;10999;51.332;9.458;2023-02-26T02:43:12;1.90;;;0.57;;
21675;SDS011;10999;51.332;9.458;2023-02-26T02:45:46;7.38;;;1.25;;
21675;SDS011;10999;51.332;9.458;2023-02-26T02:50:47;2.47;;;0.80;;
21675;SDS011;10999;51.332;9.458;2023-02-26T02:53:20;4.00;;;0.68;;
21675;SDS011;10999;51.332;9.458;2023-02-26T02:56:01;1.95;;;0.60;;
21675;SDS011;10999;51.332;9.458;2023-02-26T02:58:34;1.52;;;0.50;;
21675;SDS011;10999;51.332;9.458;2023-02-26T03:01:05;2.50;;;0.80;;
21675;SDS011;10999;51.332;9.458;2023-02-26T03:06:15;3.88;;;0.90;;
21675;SDS011;10999;51.332;9.458;2023-02-26T03:08:43;2.20;;;0.80;;
21675;SDS011;10999;51.332;9.458;2023-02-26T03:11:12;1.15;;;0.40;;
21675;SDS011;10999;51.332;9.458;2023-02-26T03:13:39;2.15;;;0.60;;
21675;SDS011;10999;51.332;9.458;2023-02-26T03:18:53;2.13;;;0.50;;
21675;SDS011;10999;51.332;9.458;2023-02-26T03:32:35;2.97;;;0.60;;
21675;SDS011;10999;51.332;9.458;2023-02-26T03:35:12;3.28;;;0.80;;
21675;SDS011;10999;51.332;9.458;2023-02-26T03:37:49;2.35;;;0.75;;
21675;SDS011;10999;51.332;9.458;2023-02-26T03:40:29;3.08;;;1.17;;
21675;SDS011;10999;51.332;9.458;2023-02-26T03:43:17;2.28;;;0.90;;
21675;SDS011;10999;51.332;9.458;2023-02-26T03:45:49;2.38;;;0.80;;
21675;SDS011;10999;51.332;9.458;2023-02-26T03:48:21;3.58;;;0.95;;
21675;SDS011;10999;51.332;9.458;2023-02-26T03:50:52;3.88;;;1.10;;
21675;SDS011;10999;51.332;9.458;2023-02-26T03:53:26;2.17;;;1.05;;
21675;SDS011;10999;51.332;9.458;2023-02-26T03:56:12;3.40;;;1.25;;
21675;SDS011;10999;51.332;9.458;2023-02-26T03:58:50;3.67;;;1.45;;
21675;SDS011;10999;51.332;9.458;2023-02-26T04:06:29;5.05;;;1.58;;
21675;SDS011;10999;51.332;9.458;2023-02-26T04:08:56;4.18;;;1.45;;
21675;SDS011;10999;51.332;9.458;2023-02-26T04:11:23;3.30;;;1.10;;
21675;SDS011;10999;51.332;9.458;2023-02-26T04:13:51;5.70;;;1.35;;
21675;SDS011;10999;51.332;9.458;2023-02-26T04:18:45;2.15;;;0.90;;
21675;SDS011;10999;51.332;9.458;2023-02-26T04:23:39;3.30;;;1.15;;
21675;SDS011;10999;51.332;9.458;2023-02-26T04:26:06;4.13;;;1.23;;
21675;SDS011;10999;51.332;9.458;2023-02-26T04:28:33;6.10;;;1.30;;
21675;SDS011;10999;51.332;9.458;2023-02-26T04:31:03;4.35;;;1.30;;
21675;SDS011;10999;51.332;9.458;2023-02-26T04:33:31;4.38;;;1.33;;
21675;SDS011;10999;51.332;9.458;2023-02-26T04:35:58;5.10;;;1.45;;
21675;SDS011;10999;51.332;9.458;2023-02-26T04:38:26;4.53;;;1.38;;
21675;SDS011;10999;51.332;9.458;2023-02-26T04:40:53;4.10;;;1.40;;
21675;SDS011;10999;51.332;9.458;2023-02-26T04:45:46;6.90;;;1.27;;
21675;SDS011;10999;51.332;9.458;2023-02-26T04:48:14;3.80;;;1.00;;
21675;SDS011;10999;51.332;9.458;2023-02-26T04:50:42;3.33;;;1.15;;
21675;SDS011;10999;51.332;9.458;2023-02-26T04:53:09;3.22;;;1.17;;
21675;SDS011;10999;51.332;9.458;2023-02-26T04:58:03;4.82;;;1.35;;
21675;SDS011;10999;51.332;9.458;2023-02-26T05:00:29;4.40;;;1.23;;
21675;SDS011;10999;51.332;9.458;2023-02-26T05:05:24;3.67;;;1.23;;
21675;SDS011;10999;51.332;9.458;2023-02-26T05:07:51;4.85;;;1.60;;
21675;SDS011;10999;51.332;9.458;2023-02-26T05:10:21;4.97;;;1.40;;
21675;SDS011;10999;51.332;9.458;2023-02-26T05:12:48;7.88;;;1.63;;
21675;SDS011;10999;51.332;9.458;2023-02-26T05:17:41;4.25;;;1.42;;
21675;SDS011;10999;51.332;9.458;2023-02-26T05:20:08;5.57;;;1.73;;
21675;SDS011;10999;51.332;9.458;2023-02-26T05:22:36;6.05;;;1.33;;
21675;SDS011;10999;51.332;9.458;2023-02-26T05:25:04;3.13;;;1.33;;
21675;SDS011;10999;51.332;9.458;2023-02-26T05:27:32;3.35;;;1.13;;
21675;SDS011;10999;51.332;9.458;2023-02-26T05:29:59;5.25;;;1.73;;
21675;SDS011;10999;51.332;9.458;2023-02-26T05:32:26;5.95;;;1.77;;
21675;SDS011;10999;51.332;9.458;2023-02-26T05:34:53;4.68;;;1.40;;
21675;SDS011;10999;51.332;9.458;2023-02-26T05:37:19;4.63;;;1.88;;
21675;SDS011;10999;51.332;9.458;2023-02-26T05:39:46;4.85;;;1.70;;
21675;SDS011;10999;51.332;9.458;2023-02-26T05:44:40;4.70;;;1.45;;
21675;SDS011;10999;51.332;9.458;2023-02-26T05:49:33;5.00;;;1.58;;
21675;SDS011;10999;51.332;9.458;2023-02-26T05:52:00;3.97;;;1.33;;
21675;SDS011;10999;51.332;9.458;2023-02-26T05:56:53;3.42;;;0.95;;
21675;SDS011;10999;51.332;9.458;2023-02-26T05:59:21;1.83;;;1.02;;
21675;SDS011;10999;51.332;9.458;2023-02-26T06:01:47;5.05;;;1.40;;
21675;SDS011;10999;51.332;9.458;2023-02-26T06:04:14;4.40;;;1.40;;
21675;SDS011;10999;51.332;9.458;2023-02-26T06:09:07;4.25;;;1.30;;
21675;SDS011;10999;51.332;9.458;2023-02-26T06:14:01;6.15;;;1.40;;
21675;SDS011;10999;51.332;9.458;2023-02-26T06:18:55;8.70;;;1.70;;
21675;SDS011;10999;51.332;9.458;2023-02-26T06:23:48;3.03;;;1.15;;
21675;SDS011;10999;51.332;9.458;2023-02-26T06:26:15;3.40;;;1.42;;
21675;SDS011;10999;51.332;9.458;2023-02-26T06:31:08;3.13;;;1.15;;
21675;SDS011;10999;51.332;9.458;2023-02-26T06:36:01;3.40;;;1.52;;
21675;SDS011;10999;51.332;9.458;2023-02-26T06:38:28;3.42;;;1.10;;
21675;SDS011;10999;51.332;9.458;2023-02-26T06:43:21;4.43;;;1.60;;
21675;SDS011;10999;51.332;9.458;2023-02-26T06:48:15;4.88;;;1.50;;
21675;SDS011;10999;51.332;9.458;2023-02-26T06:50:41;4.72;;;1.50;;
21675;SDS011;10999;51.332;9.458;2023-02-26T06:55:35;6.53;;;1.55;;
21675;SDS011;10999;51.332;9.458;2023-02-26T06:58:02;2.05;;;0.85;;
21675;SDS011;10999;51.332;9.458;2023-02-26T07:02:55;2.53;;;1.08;;
21675;SDS011;10999;51.332;9.458;2023-02-26T07:05:23;4.47;;;1.60;;
21675;SDS011;10999;51.332;9.458;2023-02-26T07:07:50;4.88;;;1.13;;
21675;SDS011;10999;51.332;9.458;2023-02-26T07:12:43;2.28;;;1.00;;
21675;SDS011;10999;51.332;9.458;2023-02-26T07:17:37;3.60;;;1.23;;
21675;SDS011;10999;51.332;9.458;2023-02-26T07:20:03;4.25;;;1.17;;
21675;SDS011;10999;51.332;9.458;2023-02-26T07:22:31;5.50;;;1.35;;
21675;SDS011;10999;51.332;9.458;2023-02-26T07:24:59;5.30;;;1.20;;
21675;SDS011;10999;51.332;9.458;2023-02-26T07:27:25;3.85;;;0.98;;
21675;SDS011;10999;51.332;9.458;2023-02-26T07:29:52;4.43;;;1.40;;
21675;SDS011;10999;51.332;9.458;2023-02-26T07:32:19;4.10;;;1.40;;
21675;SDS011;10999;51.332;9.458;2023-02-26T07:34:46;4.53;;;1.52;;
21675;SDS011;10999;51.332;9.458;2023-02-26T07:37:13;7.43;;;1.90;;
21675;SDS011;10999;51.332;9.458;2023-02-26T07:39:40;6.40;;;1.48;;
21675;SDS011;10999;51.332;9.458;2023-02-26T07:42:06;6.88;;;1.50;;
21675;SDS011;10999;51.332;9.458;2023-02-26T07:44:34;4.15;;;1.67;;
21675;SDS011;10999;51.332;9.458;2023-02-26T07:49:28;3.92;;;1.40;;
21675;SDS011;10999;51.332;9.458;2023-02-26T07:51:55;4.70;;;1.60;;
21675;SDS011;10999;51.332;9.458;2023-02-26T07:54:21;6.32;;;2.00;;
21675;SDS011;10999;51.332;9.458;2023-02-26T07:56:48;4.75;;;1.80;;
21675;SDS011;10999;51.332;9.458;2023-02-26T07:59:15;4.35;;;1.60;;
21675;SDS011;10999;51.332;9.458;2023-02-26T08:01:42;5.28;;;1.60;;
21675;SDS011;10999;51.332;9.458;2023-02-26T08:04:09;5.68;;;2.08;;
21675;SDS011;10999;51.332;9.458;2023-02-26T08:06:36;7.15;;;2.08;;
21675;SDS011;10999;51.332;9.458;2023-02-26T08:09:03;3.42;;;1.33;;
21675;SDS011;10999;51.332;9.458;2023-02-26T08:11:30;5.00;;;2.03;;
21675;SDS011;10999;51.332;9.458;2023-02-26T08:14:05;4.20;;;1.90;;
21675;SDS011;10999;51.332;9.458;2023-02-26T08:16:32;4.18;;;1.67;;
21675;SDS011;10999;51.332;9.458;2023-02-26T08:18:59;6.65;;;1.63;;
21675;SDS011;10999;51.332;9.458;2023-02-26T08:21:26;4.55;;;1.52;;
21675;SDS011;10999;51.332;9.458;2023-02-26T08:23:53;4.13;;;1.50;;
21675;SDS011;10999;51.332;9.458;2023-02-26T08:26:20;4.15;;;1.40;;
21675;SDS011;10999;51.332;9.458;2023-02-26T08:31:13;4.70;;;1.40;;
21675;SDS011;10999;51.332;9.458;2023-02-26T08:33:41;3.05;;;1.40;;
21675;SDS011;10999;51.332;9.458;2023-02-26T08:36:08;8.77;;;1.55;;
21675;SDS011;10999;51.332;9.458;2023-02-26T08:38:35;1.75;;;0.82;;
21675;SDS011;10999;51.332;9.458;2023-02-26T08:41:02;2.90;;;0.90;;
21675;SDS011;10999;51.332;9.458;2023-02-26T08:43:29;3.28;;;1.02;;
21675;SDS011;10999;51.332;9.458;2023-02-26T08:45:56;4.35;;;1.20;;
21675;SDS011;10999;51.332;9.458;2023-02-26T08:48:23;4.72;;;1.20;;
21675;SDS011;10999;51.332;9.458;2023-02-26T08:50:50;3.08;;;1.23;;
21675;SDS011;10999;51.332;9.458;2023-02-26T08:53:17;4.38;;;0.93;;
21675;SDS011;10999;51.332;9.458;2023-02-26T08:55:46;4.22;;;1.40;;
21675;SDS011;10999;51.332;9.458;2023-02-26T08:58:14;5.07;;;0.90;;
21675;SDS011;10999;51.332;9.458;2023-02-26T09:00:41;1.60;;;0.70;;
21675;SDS011;10999;51.332;9.458;2023-02-26T09:03:08;2.75;;;0.90;;
21675;SDS011;10999;51.332;9.458;2023-02-26T09:05:34;3.33;;;0.93;;
21675;SDS011;10999;51.332;9.458;2023-02-26T09:08:01;5.03;;;1.05;;
21675;SDS011;10999;51.332;9.458;2023-02-26T09:10:28;2.97;;;0.95;;
21675;SDS011;10999;51.332;9.458;2023-02-26T09:12:55;2.05;;;0.65;;
21675;SDS011;10999;51.332;9.458;2023-02-26T09:15:22;4.15;;;0.80;;
21675;SDS011;10999;51.332;9.458;2023-02-26T09:17:49;1.20;;;0.68;;
21675;SDS011;10999;51.332;9.458;2023-02-26T09:20:16;3.10;;;0.90;;
21675;SDS011;10999;51.332;9.458;2023-02-26T09:22:43;2.35;;;0.80;;
21675;SDS011;10999;51.332;9.458;2023-02-26T09:25:10;0.95;;;0.60;;
21675;SDS011;10999;51.332;9.458;2023-02-26T09:27:37;3.53;;;0.75;;
21675;SDS011;10999;51.332;9.458;2023-02-26T09:30:04;3.25;;;0.60;;
21675;SDS011;10999;51.332;9.458;2023-02-26T09:32:31;1.17;;;0.50;;
21675;SDS011;10999;51.332;9.458;2023-02-26T09:34:58;2.22;;;0.63;;
21675;SDS011;10999;51.332;9.458;2023-02-26T09:37:25;2.30;;;0.70;;
21675;SDS011;10999;51.332;9.458;2023-02-26T09:39:52;2.35;;;0.55;;
21675;SDS011;10999;51.332;9.458;2023-02-26T09:45:02;2.03;;;0.57;;
21675;SDS011;10999;51.332;9.458;2023-02-26T09:47:30;3.15;;;1.00;;
21675;SDS011;10999;51.332;9.458;2023-02-26T09:50:14;3.33;;;0.63;;
21675;SDS011;10999;51.332;9.458;2023-02-26T09:52:55;2.35;;;0.80;;
21675;SDS011;10999;51.332;9.458;2023-02-26T09:55:43;2.45;;;0.60;;
21675;SDS011;10999;51.332;9.458;2023-02-26T10:03:44;2.40;;;0.65;;
21675;SDS011;10999;51.332;9.458;2023-02-26T10:06:28;3.63;;;0.80;;
21675;SDS011;10999;51.332;9.458;2023-02-26T10:11:55;1.63;;;0.50;;
21675;SDS011;10999;51.332;9.458;2023-02-26T10:20:22;2.10;;;0.47;;
21675;SDS011;10999;51.332;9.458;2023-02-26T10:23:00;3.95;;;0.80;;
21675;SDS011;10999;51.332;9.458;2023-02-26T10:25:47;1.67;;;0.50;;
21675;SDS011;10999;51.332;9.458;2023-02-26T10:31:05;2.80;;;1.05;;
21675;SDS011;10999;51.332;9.458;2023-02-26T10:36:43;3.53;;;0.50;;
21675;SDS011;10999;51.332;9.458;2023-02-26T10:39:36;3.35;;;1.23;;
21675;SDS011;10999;51.332;9.458;2023-02-26T10:44:48;1.30;;;0.50;;
21675;SDS011;10999;51.332;9.458;2023-02-26T10:47:28;3.78;;;0.68;;
21675;SDS011;10999;51.332;9.458;2023-02-26T10:50:10;2.45;;;0.50;;
21675;SDS011;10999;51.332;9.458;2023-02-26T10:52:41;3.10;;;0.60;;
21675;SDS011;10999;51.332;9.458;2023-02-26T10:58:10;2.10;;;0.55;;
21675;SDS011;10999;51.332;9.458;2023-02-26T11:00:40;1.42;;;0.47;;
21675;SDS011;10999;51.332;9.458;2023-02-26T11:03:13;1.08;;;0.38;;
21675;SDS011;10999;51.332;9.458;2023-02-26T11:05:44;1.30;;;0.38;;
21675;SDS011;10999;51.332;9.458;2023-02-26T11:08:17;1.77;;;0.50;;
21675;SDS011;10999;51.332;9.458;2023-02-26T11:13:24;1.20;;;0.60;;
21675;SDS011;10999;51.332;9.458;2023-02-26T11:15:53;3.25;;;0.80;;
21675;SDS011;10999;51.332;9.458;2023-02-26T11:18:24;2.70;;;0.70;;
21675;SDS011;10999;51.332;9.458;2023-02-26T11:21:03;4.75;;;0.52;;
21675;SDS011;10999;51.332;9.458;2023-02-26T11:23:32;3.03;;;0.52;;
21675;SDS011;10999;51.332;9.458;2023-02-26T11:26:05;1.90;;;0.40;;
21675;SDS011;10999;51.332;9.458;2023-02-26T11:28:35;2.85;;;0.60;;
21675;SDS011;10999;51.332;9.458;2023-02-26T11:31:08;1.98;;;0.47;;
21675;SDS011;10999;51.332;9.458;2023-02-26T11:33:38;1.23;;;0.60;;
21675;SDS011;10999;51.332;9.458;2023-02-26T11:36:16;0.65;;;0.40;;
21675;SDS011;10999;51.332;9.458;2023-02-26T11:38:55;3.40;;;0.70;;
21675;SDS011;10999;51.332;9.458;2023-02-26T11:41:27;1.75;;;0.52;;
21675;SDS011;10999;51.332;9.458;2023-02-26T11:43:57;1.85;;;0.88;;
21675;SDS011;10999;51.332;9.458;2023-02-26T11:46:30;3.03;;;0.90;;
21675;SDS011;10999;51.332;9.458;2023-02-26T11:48:57;1.42;;;0.50;;
21675;SDS011;10999;51.332;9.458;2023-02-26T11:51:27;1.50;;;0.50;;
21675;SDS011;10999;51.332;9.458;2023-02-26T11:53:58;4.18;;;0.70;;
21675;SDS011;10999;51.332;9.458;2023-02-26T11:56:30;1.40;;;0.50;;
21675;SDS011;10999;51.332;9.458;2023-02-26T11:59:19;3.10;;;0.57;;
21675;SDS011;10999;51.332;9.458;2023-02-26T12:01:50;2.60;;;0.50;;
21675;SDS011;10999;51.332;9.458;2023-02-26T12:04:20;0.80;;;0.32;;
21675;SDS011;10999;51.332;9.458;2023-02-26T12:06:51;1.85;;;0.60;;
21675;SDS011;10999;51.332;9.458;2023-02-26T12:09:19;3.35;;;0.38;;
21675;SDS011;10999;51.332;9.458;2023-02-26T12:11:50;1.58;;;0.40;;
21675;SDS011;10999;51.332;9.458;2023-02-26T12:14:49;1.42;;;0.20;;
21675;SDS011;10999;51.332;9.458;2023-02-26T12:28:02;0.45;;;0.25;;
21675;SDS011;10999;51.332;9.458;2023-02-26T12:42:38;2.85;;;0.50;;
21675;SDS011;10999;51.332;9.458;2023-02-26T12:53:18;0.85;;;0.40;;
21675;SDS011;10999;51.332;9.458;2023-02-26T12:55:59;3.72;;;0.55;;
21675;SDS011;10999;51.332;9.458;2023-02-26T13:01:28;1.30;;;0.40;;
21675;SDS011;10999;51.332;9.458;2023-02-26T13:04:54;1.52;;;0.20;;
21675;SDS011;10999;51.332;9.458;2023-02-26T13:07:36;0.90;;;0.40;;
21675;SDS011;10999;51.332;9.458;2023-02-26T13:16:06;1.55;;;0.30;;
21675;SDS011;10999;51.332;9.458;2023-02-26T13:18:41;1.70;;;0.40;;
21675;SDS011;10999;51.332;9.458;2023-02-26T13:21:19;1.30;;;0.40;;
21675;SDS011;10999;51.332;9.458;2023-02-26T13:23:51;1.90;;;0.35;;
21675;SDS011;10999;51.332;9.458;2023-02-26T13:26:41;3.90;;;0.45;;
21675;SDS011;10999;51.332;9.458;2023-02-26T13:29:13;1.45;;;0.40;;
21675;SDS011;10999;51.332;9.458;2023-02-26T13:31:46;2.55;;;0.45;;
21675;SDS011;10999;51.332;9.458;2023-02-26T13:34:33;2.22;;;0.38;;
21675;SDS011;10999;51.332;9.458;2023-02-26T13:37:02;4.60;;;1.02;;
21675;SDS011;10999;51.332;9.458;2023-02-26T13:42:32;3.60;;;0.85;;
21675;SDS011;10999;51.332;9.458;2023-02-26T13:51:11;2.03;;;0.70;;
21675;SDS011;10999;51.332;9.458;2023-02-26T13:56:41;1.38;;;0.40;;
21675;SDS011;10999;51.332;9.458;2023-02-26T14:06:57;2.28;;;0.50;;
21675;SDS011;10999;51.332;9.458;2023-02-26T14:17:38;10.55;;;2.22;;
21675;SDS011;10999;51.332;9.458;2023-02-26T14:20:20;4.05;;;0.47;;
21675;SDS011;10999;51.332;9.458;2023-02-26T14:22:51;1.08;;;0.50;;
21675;SDS011;10999;51.332;9.458;2023-02-26T14:25:33;2.00;;;0.50;;
21675;SDS011;10999;51.332;9.458;2023-02-26T14:28:17;2.55;;;0.50;;
21675;SDS011;10999;51.332;9.458;2023-02-26T14:31:05;3.00;;;0.60;;
21675;SDS011;10999;51.332;9.458;2023-02-26T14:33:43;2.60;;;0.95;;
21675;SDS011;10999;51.332;9.458;2023-02-26T14:36:35;2.88;;;0.95;;
21675;SDS011;10999;51.332;9.458;2023-02-26T14:41:47;4.60;;;0.75;;
21675;SDS011;10999;51.332;9.458;2023-02-26T14:44:17;1.73;;;0.82;;
21675;SDS011;10999;51.332;9.458;2023-02-26T14:46:47;2.38;;;0.70;;
21675;SDS011;10999;51.332;9.458;2023-02-26T14:49:17;2.72;;;0.80;;
21675;SDS011;10999;51.332;9.458;2023-02-26T14:52:05;1.35;;;0.32;;
21675;SDS011;10999;51.332;9.458;2023-02-26T15:00:30;1.23;;;0.35;;
21675;SDS011;10999;51.332;9.458;2023-02-26T15:06:17;5.28;;;0.80;;
21675;SDS011;10999;51.332;9.458;2023-02-26T15:12:22;3.45;;;0.70;;
21675;SDS011;10999;51.332;9.458;2023-02-26T15:15:11;2.38;;;0.73;;
21675;SDS011;10999;51.332;9.458;2023-02-26T15:23:54;1.88;;;0.40;;
21675;SDS011;10999;51.332;9.458;2023-02-26T15:28:52;0.77;;;0.28;;
21675;SDS011;10999;51.332;9.458;2023-02-26T15:31:24;1.67;;;0.40;;
21675;SDS011;10999;51.332;9.458;2023-02-26T15:33:57;2.42;;;0.80;;
21675;SDS011;10999;51.332;9.458;2023-02-26T15:36:24;2.35;;;0.40;;
21675;SDS011;10999;51.332;9.458;2023-02-26T15:38:53;3.20;;;0.73;;
21675;SDS011;10999;51.332;9.458;2023-02-26T15:41:23;2.13;;;0.80;;
21675;SDS011;10999;51.332;9.458;2023-02-26T15:43:53;2.30;;;0.80;;
21675;SDS011;10999;51.332;9.458;2023-02-26T15:46:28;2.55;;;0.70;;
21675;SDS011;10999;51.332;9.458;2023-02-26T15:49:05;1.95;;;0.50;;
21675;SDS011;10999;51.332;9.458;2023-02-26T15:51:35;4.15;;;1.00;;
21675;SDS011;10999;51.332;9.458;2023-02-26T15:54:02;1.90;;;0.60;;
21675;SDS011;10999;51.332;9.458;2023-02-26T15:56:31;0.50;;;0.30;;
21675;SDS011;10999;51.332;9.458;2023-02-26T16:01:31;1.75;;;0.50;;
21675;SDS011;10999;51.332;9.458;2023-02-26T16:04:03;0.88;;;0.50;;
21675;SDS011;10999;51.332;9.458;2023-02-26T16:06:37;1.70;;;0.63;;
21675;SDS011;10999;51.332;9.458;2023-02-26T16:09:14;1.85;;;0.70;;
21675;SDS011;10999;51.332;9.458;2023-02-26T16:11:46;2.13;;;0.85;;
21675;SDS011;10999;51.332;9.458;2023-02-26T16:14:26;2.67;;;0.70;;
21675;SDS011;10999;51.332;9.458;2023-02-26T16:16:59;1.73;;;0.47;;
21675;SDS011;10999;51.332;9.458;2023-02-26T16:19:43;3.22;;;0.70;;
21675;SDS011;10999;51.332;9.458;2023-02-26T16:22:20;1.33;;;0.55;;
21675;SDS011;10999;51.332;9.458;2023-02-26T16:25:19;2.00;;;0.77;;
21675;SDS011;10999;51.332;9.458;2023-02-26T16:28:04;2.80;;;0.80;;
21675;SDS011;10999;51.332;9.458;2023-02-26T16:30:38;2.92;;;0.55;;
21675;SDS011;10999;51.332;9.458;2023-02-26T16:33:11;3.70;;;0.80;;
21675;SDS011;10999;51.332;9.458;2023-02-26T16:35:44;1.55;;;0.40;;
21675;SDS011;10999;51.332;9.458;2023-02-26T16:38:18;1.73;;;0.90;;
21675;SDS011;10999;51.332;9.458;2023-02-26T16:40:57;0.65;;;0.38;;
21675;SDS011;10999;51.332;9.458;2023-02-26T16:43:31;2.80;;;0.68;;
21675;SDS011;10999;51.332;9.458;2023-02-26T16:46:02;3.33;;;0.68;;
21675;SDS011;10999;51.332;9.458;2023-02-26T16:48:31;2.58;;;0.77;;
21675;SDS011;10999;51.332;9.458;2023-02-26T16:51:05;2.58;;;0.82;;
21675;SDS011;10999;51.332;9.458;2023-02-26T16:53:46;3.30;;;0.63;;
21675;SDS011;10999;51.332;9.458;2023-02-26T16:56:16;1.85;;;0.68;;
21675;SDS011;10999;51.332;9.458;2023-02-26T16:58:46;1.20;;;0.50;;
21675;SDS011;10999;51.332;9.458;2023-02-26T17:01:21;1.98;;;0.57;;
21675;SDS011;10999;51.332;9.458;2023-02-26T17:03:49;2.58;;;0.60;;
21675;SDS011;10999;51.332;9.458;2023-02-26T17:06:24;2.30;;;0.55;;
21675;SDS011;10999;51.332;9.458;2023-02-26T17:08:56;3.53;;;0.75;;
21675;SDS011;10999;51.332;9.458;2023-02-26T17:11:26;3.85;;;1.10;;
21675;SDS011;10999;51.332;9.458;2023-02-26T17:13:56;4.07;;;1.30;;
21675;SDS011;10999;51.332;9.458;2023-02-26T17:16:40;5.40;;;1.50;;
21675;SDS011;10999;51.332;9.458;2023-02-26T17:19:07;3.95;;;1.15;;
21675;SDS011;10999;51.332;9.458;2023-02-26T17:21:34;4.43;;;1.60;;
21675;SDS011;10999;51.332;9.458;2023-02-26T17:24:08;7.15;;;1.73;;
21675;SDS011;10999;51.332;9.458;2023-02-26T17:26:41;4.40;;;1.90;;
21675;SDS011;10999;51.332;9.458;2023-02-26T17:29:11;5.68;;;2.00;;
21675;SDS011;10999;51.332;9.458;2023-02-26T17:31:44;8.25;;;2.40;;
21675;SDS011;10999;51.332;9.458;2023-02-26T17:34:11;7.15;;;2.55;;
21675;SDS011;10999;51.332;9.458;2023-02-26T17:36:38;6.25;;;2.80;;
21675;SDS011;10999;51.332;9.458;2023-02-26T17:39:04;6.90;;;1.90;;
21675;SDS011;10999;51.332;9.458;2023-02-26T17:41:31;4.88;;;1.88;;
21675;SDS011;10999;51.332;9.458;2023-02-26T17:43:59;6.28;;;1.95;;
21675;SDS011;10999;51.332;9.458;2023-02-26T17:46:26;5.43;;;2.42;;
21675;SDS011;10999;51.332;9.458;2023-02-26T17:48:52;6.70;;;1.80;;
21675;SDS011;10999;51.332;9.458;2023-02-26T17:51:19;7.68;;;2.00;;
21675;SDS011;10999;51.332;9.458;2023-02-26T17:53:46;7.68;;;1.60;;
21675;SDS011;10999;51.332;9.458;2023-02-26T17:56:28;5.80;;;1.67;;
21675;SDS011;10999;51.332;9.458;2023-02-26T17:58:57;5.25;;;1.73;;
21675;SDS011;10999;51.332;9.458;2023-02-26T18:01:24;4.47;;;1.58;;
21675;SDS011;10999;51.332;9.458;2023-02-26T18:03:55;4.40;;;1.55;;
21675;SDS011;10999;51.332;9.458;2023-02-26T18:06:23;4.75;;;1.65;;
21675;SDS011;10999;51.332;9.458;2023-02-26T18:08:50;3.42;;;1.10;;
21675;SDS011;10999;51.332;9.458;2023-02-26T18:11:17;4.03;;;1.27;;
21675;SDS011;10999;51.332;9.458;2023-02-26T18:13:45;3.75;;;1.33;;
21675;SDS011;10999;51.332;9.458;2023-02-26T18:16:14;3.70;;;1.00;;
21675;SDS011;10999;51.332;9.458;2023-02-26T18:18:45;2.55;;;1.17;;
21675;SDS011;10999;51.332;9.458;2023-02-26T18:21:12;5.35;;;1.20;;
21675;SDS011;10999;51.332;9.458;2023-02-26T18:23:40;3.00;;;0.88;;
21675;SDS011;10999;51.332;9.458;2023-02-26T18:26:06;5.55;;;1.65;;
21675;SDS011;10999;51.332;9.458;2023-02-26T18:28:35;4.57;;;1.50;;
21675;SDS011;10999;51.332;9.458;2023-02-26T18:31:02;4.85;;;1.73;;
21675;SDS011;10999;51.332;9.458;2023-02-26T18:33:34;4.82;;;1.35;;
21675;SDS011;10999;51.332;9.458;2023-02-26T18:36:03;4.38;;;1.55;;
21675;SDS011;10999;51.332;9.458;2023-02-26T18:38:31;4.82;;;1.40;;
21675;SDS011;10999;51.332;9.458;2023-02-26T18:40:58;3.88;;;1.38;;
21675;SDS011;10999;51.332;9.458;2023-02-26T18:43:27;4.00;;;1.10;;
21675;SDS011;10999;51.332;9.458;2023-02-26T18:45:54;7.38;;;2.25;;
21675;SDS011;10999;51.332;9.458;2023-02-26T18:48:22;3.72;;;1.40;;
21675;SDS011;10999;51.332;9.458;2023-02-26T18:50:49;5.03;;;1.50;;
21675;SDS011;10999;51.332;9.458;2023-02-26T18:53:15;4.32;;;1.38;;
21675;SDS011;10999;51.332;9.458;2023-02-26T18:55:43;5.30;;;1.92;;
21675;SDS011;10999;51.332;9.458;2023-02-26T18:58:10;5.28;;;1.83;;
21675;SDS011;10999;51.332;9.458;2023-02-26T19:00:38;5.13;;;2.30;;
21675;SDS011;10999;51.332;9.458;2023-02-26T19:03:05;4.85;;;1.60;;
21675;SDS011;10999;51.332;9.458;2023-02-26T19:05:34;5.60;;;1.65;;
21675;SDS011;10999;51.332;9.458;2023-02-26T19:08:03;4.20;;;1.27;;
21675;SDS011;10999;51.332;9.458;2023-02-26T19:10:31;8.32;;;1.90;;
21675;SDS011;10999;51.332;9.458;2023-02-26T19:12:59;9.00;;;2.00;;